sensor_id;sensor_type;location;lat;lon;timestamp;P1;durP1;ratioP1;P2;durP2;ratioP2
7919;SDS011;18778;47.610;9.776;2023-03-21T00:00:57;7.20;;;6.50;;
7919;SDS011;18778;47.610;9.776;2023-03-21T00:03:24;6.67;;;6.03;;
7919;SDS011;18778;47.610;9.776;2023-03-21T00:05:51;7.40;;;6.60;;
7919;SDS011;18778;47.610;9.776;2023-03-21T00:08:20;7.60;;;6.80;;
7919;SDS011;18778;47.610;9.776;2023-03-21T00:10:54;9.20;;;6.93;;
7919;SDS011;18778;47.610;9.776;2023-03-21T00:13:24;7.60;;;6.80;;
7919;SDS011;18778;47.610;9.776;2023-03-21T00:15:52;8.33;;;6.70;;
7919;SDS011;18778;47.610;9.776;2023-03-21T00:18:21;7.90;;;6.30;;
7919;SDS011;18778;47.610;9.776;2023-03-21T00:21:00;7.70;;;6.90;;
7919;SDS011;18778;47.610;9.776;2023-03-21T00:23:32;7.37;;;6.47;;
7919;SDS011;18778;47.610;9.776;2023-03-21T00:25:58;10.60;;;6.63;;
7919;SDS011;18778;47.610;9.776;2023-03-21T00:28:24;7.40;;;6.17;;
7919;SDS011;18778;47.610;9.776;2023-03-21T00:30:55;8.13;;;6.90;;
7919;SDS011;18778;47.610;9.776;2023-03-21T00:33:24;7.33;;;6.40;;
7919;SDS011;18778;47.610;9.776;2023-03-21T00:35:51;6.90;;;5.90;;
7919;SDS011;18778;47.610;9.776;2023-03-21T00:38:18;8.90;;;5.80;;
7919;SDS011;18778;47.610;9.776;2023-03-21T00:40:44;7.77;;;6.67;;
7919;SDS011;18778;47.610;9.776;2023-03-21T00:43:10;8.33;;;6.53;;
7919;SDS011;18778;47.610;9.776;2023-03-21T00:45:36;8.57;;;7.40;;
7919;SDS011;18778;47.610;9.776;2023-03-21T00:48:02;8.03;;;6.63;;
7919;SDS011;18778;47.610;9.776;2023-03-21T00:50:31;8.37;;;7.10;;
7919;SDS011;18778;47.610;9.776;2023-03-21T00:52:57;7.63;;;6.83;;
7919;SDS011;18778;47.610;9.776;2023-03-21T00:55:22;7.67;;;6.87;;
7919;SDS011;18778;47.610;9.776;2023-03-21T00:57:48;11.73;;;6.50;;
7919;SDS011;18778;47.610;9.776;2023-03-21T01:00:14;7.40;;;6.40;;
7919;SDS011;18778;47.610;9.776;2023-03-21T01:02:43;9.03;;;6.80;;
7919;SDS011;18778;47.610;9.776;2023-03-21T01:05:21;7.50;;;6.80;;
7919;SDS011;18778;47.610;9.776;2023-03-21T01:08:10;8.43;;;6.47;;
7919;SDS011;18778;47.610;9.776;2023-03-21T01:10:38;9.27;;;6.27;;
7919;SDS011;18778;47.610;9.776;2023-03-21T01:13:05;7.43;;;6.73;;
7919;SDS011;18778;47.610;9.776;2023-03-21T01:15:31;6.97;;;6.37;;
7919;SDS011;18778;47.610;9.776;2023-03-21T01:17:57;7.17;;;6.47;;
7919;SDS011;18778;47.610;9.776;2023-03-21T01:20:22;6.97;;;6.37;;
7919;SDS011;18778;47.610;9.776;2023-03-21T01:22:48;6.80;;;6.03;;
7919;SDS011;18778;47.610;9.776;2023-03-21T01:25:13;6.73;;;5.73;;
7919;SDS011;18778;47.610;9.776;2023-03-21T01:27:39;6.50;;;5.90;;
7919;SDS011;18778;47.610;9.776;2023-03-21T01:30:05;7.83;;;6.87;;
7919;SDS011;18778;47.610;9.776;2023-03-21T01:32:32;6.63;;;5.73;;
7919;SDS011;18778;47.610;9.776;2023-03-21T01:34:57;6.70;;;6.03;;
7919;SDS011;18778;47.610;9.776;2023-03-21T01:37:23;6.43;;;5.70;;
7919;SDS011;18778;47.610;9.776;2023-03-21T01:39:50;6.70;;;6.07;;
7919;SDS011;18778;47.610;9.776;2023-03-21T01:42:16;6.90;;;6.27;;
7919;SDS011;18778;47.610;9.776;2023-03-21T01:44:55;6.90;;;6.20;;
7919;SDS011;18778;47.610;9.776;2023-03-21T01:47:21;7.67;;;6.03;;
7919;SDS011;18778;47.610;9.776;2023-03-21T01:49:48;6.43;;;5.87;;
7919;SDS011;18778;47.610;9.776;2023-03-21T01:52:17;8.03;;;6.03;;
7919;SDS011;18778;47.610;9.776;2023-03-21T01:54:48;7.00;;;6.23;;
7919;SDS011;18778;47.610;9.776;2023-03-21T01:57:16;7.93;;;5.90;;
7919;SDS011;18778;47.610;9.776;2023-03-21T01:59:56;8.57;;;6.20;;
7919;SDS011;18778;47.610;9.776;2023-03-21T02:02:29;6.63;;;6.03;;
7919;SDS011;18778;47.610;9.776;2023-03-21T02:04:55;6.77;;;6.17;;
7919;SDS011;18778;47.610;9.776;2023-03-21T02:07:24;8.87;;;6.10;;
7919;SDS011;18778;47.610;9.776;2023-03-21T02:10:00;6.73;;;6.07;;
7919;SDS011;18778;47.610;9.776;2023-03-21T02:12:29;6.90;;;6.27;;
7919;SDS011;18778;47.610;9.776;2023-03-21T02:14:55;6.47;;;5.90;;
7919;SDS011;18778;47.610;9.776;2023-03-21T02:27:56;7.37;;;6.67;;
7919;SDS011;18778;47.610;9.776;2023-03-21T02:30:34;6.10;;;5.53;;
7919;SDS011;18778;47.610;9.776;2023-03-21T02:33:33;7.00;;;6.30;;
7919;SDS011;18778;47.610;9.776;2023-03-21T02:41:44;7.27;;;6.50;;
7919;SDS011;18778;47.610;9.776;2023-03-21T02:44:23;8.20;;;5.90;;
7919;SDS011;18778;47.610;9.776;2023-03-21T02:46:54;7.07;;;5.90;;
7919;SDS011;18778;47.610;9.776;2023-03-21T02:49:29;6.90;;;6.23;;
7919;SDS011;18778;47.610;9.776;2023-03-21T02:51:59;7.30;;;6.47;;
7919;SDS011;18778;47.610;9.776;2023-03-21T02:54:27;7.47;;;6.57;;
7919;SDS011;18778;47.610;9.776;2023-03-21T02:56:56;6.80;;;6.20;;
7919;SDS011;18778;47.610;9.776;2023-03-21T02:59:24;8.17;;;6.67;;
7919;SDS011;18778;47.610;9.776;2023-03-21T03:01:51;6.80;;;6.13;;
7919;SDS011;18778;47.610;9.776;2023-03-21T03:04:20;6.53;;;5.83;;
7919;SDS011;18778;47.610;9.776;2023-03-21T03:12:49;7.50;;;5.77;;
7919;SDS011;18778;47.610;9.776;2023-03-21T03:28:45;7.67;;;6.87;;
7919;SDS011;18778;47.610;9.776;2023-03-21T03:31:15;7.03;;;6.43;;
7919;SDS011;18778;47.610;9.776;2023-03-21T03:33:46;7.43;;;6.00;;
7919;SDS011;18778;47.610;9.776;2023-03-21T03:36:16;7.77;;;6.07;;
7919;SDS011;18778;47.610;9.776;2023-03-21T03:38:45;6.80;;;6.20;;
7919;SDS011;18778;47.610;9.776;2023-03-21T03:41:18;8.37;;;6.30;;
7919;SDS011;18778;47.610;9.776;2023-03-21T03:43:49;7.17;;;6.47;;
7919;SDS011;18778;47.610;9.776;2023-03-21T03:46:40;7.27;;;6.00;;
7919;SDS011;18778;47.610;9.776;2023-03-21T03:49:25;6.60;;;5.90;;
7919;SDS011;18778;47.610;9.776;2023-03-21T03:54:45;6.67;;;6.00;;
7919;SDS011;18778;47.610;9.776;2023-03-21T03:57:13;7.23;;;5.53;;
7919;SDS011;18778;47.610;9.776;2023-03-21T03:59:39;6.37;;;5.57;;
7919;SDS011;18778;47.610;9.776;2023-03-21T04:02:07;6.97;;;6.00;;
7919;SDS011;18778;47.610;9.776;2023-03-21T04:04:34;6.13;;;5.63;;
7919;SDS011;18778;47.610;9.776;2023-03-21T04:07:00;5.83;;;5.33;;
7919;SDS011;18778;47.610;9.776;2023-03-21T04:09:27;7.20;;;5.80;;
7919;SDS011;18778;47.610;9.776;2023-03-21T04:11:54;6.13;;;5.63;;
7919;SDS011;18778;47.610;9.776;2023-03-21T04:14:20;5.67;;;5.10;;
7919;SDS011;18778;47.610;9.776;2023-03-21T04:16:46;7.80;;;5.77;;
7919;SDS011;18778;47.610;9.776;2023-03-21T04:19:13;6.47;;;5.60;;
7919;SDS011;18778;47.610;9.776;2023-03-21T04:21:39;6.70;;;6.03;;
7919;SDS011;18778;47.610;9.776;2023-03-21T04:24:05;7.13;;;6.43;;
7919;SDS011;18778;47.610;9.776;2023-03-21T04:26:31;6.97;;;6.10;;
7919;SDS011;18778;47.610;9.776;2023-03-21T04:28:59;6.50;;;5.90;;
7919;SDS011;18778;47.610;9.776;2023-03-21T04:31:26;6.27;;;5.73;;
7919;SDS011;18778;47.610;9.776;2023-03-21T04:33:52;13.17;;;6.03;;
7919;SDS011;18778;47.610;9.776;2023-03-21T04:36:19;7.30;;;6.60;;
7919;SDS011;18778;47.610;9.776;2023-03-21T04:38:54;7.03;;;6.33;;
7919;SDS011;18778;47.610;9.776;2023-03-21T04:41:24;6.53;;;5.93;;
7919;SDS011;18778;47.610;9.776;2023-03-21T04:43:51;6.30;;;5.80;;
7919;SDS011;18778;47.610;9.776;2023-03-21T04:46:16;6.67;;;5.80;;
7919;SDS011;18778;47.610;9.776;2023-03-21T04:48:42;6.00;;;5.20;;
7919;SDS011;18778;47.610;9.776;2023-03-21T04:51:07;6.87;;;5.53;;
7919;SDS011;18778;47.610;9.776;2023-03-21T04:53:33;6.40;;;5.90;;
7919;SDS011;18778;47.610;9.776;2023-03-21T04:55:59;6.37;;;5.53;;
7919;SDS011;18778;47.610;9.776;2023-03-21T04:58:24;7.23;;;6.20;;
7919;SDS011;18778;47.610;9.776;2023-03-21T05:00:50;6.57;;;5.90;;
7919;SDS011;18778;47.610;9.776;2023-03-21T05:03:17;6.93;;;6.17;;
7919;SDS011;18778;47.610;9.776;2023-03-21T05:05:45;6.33;;;5.73;;
7919;SDS011;18778;47.610;9.776;2023-03-21T05:08:11;6.27;;;5.70;;
7919;SDS011;18778;47.610;9.776;2023-03-21T05:10:38;6.83;;;5.53;;
7919;SDS011;18778;47.610;9.776;2023-03-21T05:13:04;6.40;;;5.80;;
7919;SDS011;18778;47.610;9.776;2023-03-21T05:15:30;6.33;;;5.73;;
7919;SDS011;18778;47.610;9.776;2023-03-21T05:17:55;6.60;;;5.57;;
7919;SDS011;18778;47.610;9.776;2023-03-21T05:20:22;6.47;;;5.73;;
7919;SDS011;18778;47.610;9.776;2023-03-21T05:22:49;8.90;;;7.93;;
7919;SDS011;18778;47.610;9.776;2023-03-21T05:25:16;19.00;;;12.80;;
7919;SDS011;18778;47.610;9.776;2023-03-21T05:27:42;18.23;;;12.00;;
7919;SDS011;18778;47.610;9.776;2023-03-21T05:30:14;9.47;;;8.43;;
7919;SDS011;18778;47.610;9.776;2023-03-21T05:32:40;7.40;;;6.70;;
7919;SDS011;18778;47.610;9.776;2023-03-21T05:35:06;7.37;;;6.17;;
7919;SDS011;18778;47.610;9.776;2023-03-21T05:37:33;7.97;;;5.73;;
7919;SDS011;18778;47.610;9.776;2023-03-21T05:39:58;6.97;;;6.27;;
7919;SDS011;18778;47.610;9.776;2023-03-21T05:42:24;6.63;;;6.00;;
7919;SDS011;18778;47.610;9.776;2023-03-21T05:44:50;6.73;;;5.60;;
7919;SDS011;18778;47.610;9.776;2023-03-21T05:47:16;16.87;;;15.17;;
7919;SDS011;18778;47.610;9.776;2023-03-21T05:49:43;15.90;;;14.23;;
7919;SDS011;18778;47.610;9.776;2023-03-21T05:52:09;11.80;;;10.70;;
7919;SDS011;18778;47.610;9.776;2023-03-21T05:54:35;12.17;;;10.97;;
7919;SDS011;18778;47.610;9.776;2023-03-21T05:57:01;10.33;;;9.33;;
7919;SDS011;18778;47.610;9.776;2023-03-21T05:59:28;9.80;;;7.47;;
7919;SDS011;18778;47.610;9.776;2023-03-21T06:01:54;8.03;;;6.73;;
7919;SDS011;18778;47.610;9.776;2023-03-21T06:04:20;6.53;;;5.93;;
7919;SDS011;18778;47.610;9.776;2023-03-21T06:06:45;6.63;;;6.03;;
7919;SDS011;18778;47.610;9.776;2023-03-21T06:09:11;7.43;;;6.23;;
7919;SDS011;18778;47.610;9.776;2023-03-21T06:11:45;6.50;;;5.80;;
7919;SDS011;18778;47.610;9.776;2023-03-21T06:14:12;6.93;;;5.97;;
7919;SDS011;18778;47.610;9.776;2023-03-21T06:16:38;6.73;;;5.50;;
7919;SDS011;18778;47.610;9.776;2023-03-21T06:19:03;6.90;;;5.20;;
7919;SDS011;18778;47.610;9.776;2023-03-21T06:21:29;5.60;;;5.10;;
7919;SDS011;18778;47.610;9.776;2023-03-21T06:23:54;5.80;;;5.30;;
7919;SDS011;18778;47.610;9.776;2023-03-21T06:26:20;6.17;;;5.57;;
7919;SDS011;18778;47.610;9.776;2023-03-21T06:28:47;6.57;;;6.00;;
7919;SDS011;18778;47.610;9.776;2023-03-21T06:31:16;6.47;;;5.80;;
7919;SDS011;18778;47.610;9.776;2023-03-21T06:33:42;6.23;;;5.63;;
7919;SDS011;18778;47.610;9.776;2023-03-21T06:36:08;9.43;;;6.10;;
7919;SDS011;18778;47.610;9.776;2023-03-21T06:38:34;6.60;;;5.50;;
7919;SDS011;18778;47.610;9.776;2023-03-21T06:41:03;8.60;;;5.67;;
7919;SDS011;18778;47.610;9.776;2023-03-21T06:43:29;6.03;;;5.47;;
7919;SDS011;18778;47.610;9.776;2023-03-21T06:45:56;6.40;;;5.27;;
7919;SDS011;18778;47.610;9.776;2023-03-21T06:48:22;5.27;;;4.77;;
7919;SDS011;18778;47.610;9.776;2023-03-21T06:50:48;5.77;;;5.13;;
7919;SDS011;18778;47.610;9.776;2023-03-21T06:53:15;5.70;;;5.20;;
7919;SDS011;18778;47.610;9.776;2023-03-21T06:55:41;5.80;;;5.30;;
7919;SDS011;18778;47.610;9.776;2023-03-21T06:58:07;5.90;;;4.77;;
7919;SDS011;18778;47.610;9.776;2023-03-21T07:00:32;5.23;;;4.73;;
7919;SDS011;18778;47.610;9.776;2023-03-21T07:02:58;7.27;;;4.90;;
7919;SDS011;18778;47.610;9.776;2023-03-21T07:05:25;7.47;;;5.37;;
7919;SDS011;18778;47.610;9.776;2023-03-21T07:07:51;5.47;;;4.97;;
7919;SDS011;18778;47.610;9.776;2023-03-21T07:10:16;6.83;;;5.83;;
7919;SDS011;18778;47.610;9.776;2023-03-21T07:12:42;6.63;;;5.60;;
7919;SDS011;18778;47.610;9.776;2023-03-21T07:15:08;6.37;;;5.77;;
7919;SDS011;18778;47.610;9.776;2023-03-21T07:17:34;5.40;;;3.97;;
7919;SDS011;18778;47.610;9.776;2023-03-21T07:20:01;4.50;;;4.10;;
7919;SDS011;18778;47.610;9.776;2023-03-21T07:22:30;5.00;;;3.90;;
7919;SDS011;18778;47.610;9.776;2023-03-21T07:24:55;4.93;;;4.53;;
7919;SDS011;18778;47.610;9.776;2023-03-21T07:27:21;4.20;;;3.90;;
7919;SDS011;18778;47.610;9.776;2023-03-21T07:29:46;3.90;;;3.60;;
7919;SDS011;18778;47.610;9.776;2023-03-21T07:32:14;5.87;;;3.73;;
7919;SDS011;18778;47.610;9.776;2023-03-21T07:34:39;4.63;;;3.90;;
7919;SDS011;18778;47.610;9.776;2023-03-21T07:37:06;6.97;;;3.87;;
7919;SDS011;18778;47.610;9.776;2023-03-21T07:39:31;3.63;;;3.43;;
7919;SDS011;18778;47.610;9.776;2023-03-21T07:41:58;7.23;;;3.80;;
7919;SDS011;18778;47.610;9.776;2023-03-21T07:44:24;4.73;;;4.00;;
7919;SDS011;18778;47.610;9.776;2023-03-21T07:46:50;4.47;;;3.80;;
7919;SDS011;18778;47.610;9.776;2023-03-21T07:49:15;3.67;;;3.37;;
7919;SDS011;18778;47.610;9.776;2023-03-21T07:51:41;5.17;;;3.20;;
7919;SDS011;18778;47.610;9.776;2023-03-21T07:54:07;3.50;;;3.13;;
7919;SDS011;18778;47.610;9.776;2023-03-21T07:56:32;3.10;;;2.90;;
7919;SDS011;18778;47.610;9.776;2023-03-21T07:58:58;2.90;;;2.57;;
7919;SDS011;18778;47.610;9.776;2023-03-21T08:01:24;3.27;;;2.97;;
7919;SDS011;18778;47.610;9.776;2023-03-21T08:03:50;3.27;;;2.77;;
7919;SDS011;18778;47.610;9.776;2023-03-21T08:06:17;2.90;;;2.70;;
7919;SDS011;18778;47.610;9.776;2023-03-21T08:08:44;3.30;;;3.07;;
7919;SDS011;18778;47.610;9.776;2023-03-21T08:11:10;2.80;;;2.63;;
7919;SDS011;18778;47.610;9.776;2023-03-21T08:13:36;3.30;;;3.00;;
7919;SDS011;18778;47.610;9.776;2023-03-21T08:16:01;3.07;;;2.87;;
7919;SDS011;18778;47.610;9.776;2023-03-21T08:18:27;2.40;;;2.30;;
7919;SDS011;18778;47.610;9.776;2023-03-21T08:20:56;2.90;;;2.70;;
7919;SDS011;18778;47.610;9.776;2023-03-21T08:23:22;2.40;;;2.30;;
7919;SDS011;18778;47.610;9.776;2023-03-21T08:25:54;2.87;;;2.47;;
7919;SDS011;18778;47.610;9.776;2023-03-21T08:28:21;2.87;;;2.13;;
7919;SDS011;18778;47.610;9.776;2023-03-21T08:30:47;2.50;;;2.30;;
7919;SDS011;18778;47.610;9.776;2023-03-21T08:33:14;3.63;;;2.27;;
7919;SDS011;18778;47.610;9.776;2023-03-21T08:35:41;2.30;;;2.10;;
7919;SDS011;18778;47.610;9.776;2023-03-21T08:38:07;4.40;;;2.83;;
7919;SDS011;18778;47.610;9.776;2023-03-21T08:40:34;2.10;;;2.00;;
7919;SDS011;18778;47.610;9.776;2023-03-21T08:43:00;2.63;;;2.50;;
7919;SDS011;18778;47.610;9.776;2023-03-21T08:45:26;2.90;;;2.70;;
7919;SDS011;18778;47.610;9.776;2023-03-21T08:47:52;2.47;;;2.30;;
7919;SDS011;18778;47.610;9.776;2023-03-21T08:50:19;3.40;;;2.80;;
7919;SDS011;18778;47.610;9.776;2023-03-21T08:52:46;2.67;;;2.57;;
7919;SDS011;18778;47.610;9.776;2023-03-21T08:55:12;3.33;;;2.70;;
7919;SDS011;18778;47.610;9.776;2023-03-21T08:57:39;3.90;;;2.80;;
7919;SDS011;18778;47.610;9.776;2023-03-21T09:00:06;3.07;;;2.83;;
7919;SDS011;18778;47.610;9.776;2023-03-21T09:02:39;3.23;;;2.93;;
7919;SDS011;18778;47.610;9.776;2023-03-21T09:05:06;5.10;;;2.90;;
7919;SDS011;18778;47.610;9.776;2023-03-21T09:07:33;3.17;;;2.97;;
7919;SDS011;18778;47.610;9.776;2023-03-21T09:10:01;2.57;;;2.47;;
7919;SDS011;18778;47.610;9.776;2023-03-21T09:12:27;3.47;;;3.17;;
7919;SDS011;18778;47.610;9.776;2023-03-21T09:14:53;3.07;;;2.87;;
7919;SDS011;18778;47.610;9.776;2023-03-21T09:17:19;2.97;;;2.70;;
7919;SDS011;18778;47.610;9.776;2023-03-21T09:19:44;3.20;;;3.00;;
7919;SDS011;18778;47.610;9.776;2023-03-21T09:22:11;2.93;;;2.73;;
7919;SDS011;18778;47.610;9.776;2023-03-21T09:24:38;3.17;;;2.97;;
7919;SDS011;18778;47.610;9.776;2023-03-21T09:27:05;3.50;;;3.20;;
7919;SDS011;18778;47.610;9.776;2023-03-21T09:29:31;3.53;;;3.23;;
7919;SDS011;18778;47.610;9.776;2023-03-21T09:31:57;4.60;;;3.47;;
7919;SDS011;18778;47.610;9.776;2023-03-21T09:34:23;8.20;;;3.83;;
7919;SDS011;18778;47.610;9.776;2023-03-21T09:36:50;4.07;;;3.57;;
7919;SDS011;18778;47.610;9.776;2023-03-21T09:39:18;3.93;;;3.63;;
7919;SDS011;18778;47.610;9.776;2023-03-21T09:49:39;3.60;;;3.30;;
7919;SDS011;18778;47.610;9.776;2023-03-21T09:52:11;4.30;;;3.70;;
7919;SDS011;18778;47.610;9.776;2023-03-21T09:54:43;3.70;;;3.40;;
7919;SDS011;18778;47.610;9.776;2023-03-21T09:59:53;4.53;;;4.13;;
7919;SDS011;18778;47.610;9.776;2023-03-21T10:08:16;4.20;;;3.80;;
7919;SDS011;18778;47.610;9.776;2023-03-21T10:10:50;4.30;;;4.00;;
7919;SDS011;18778;47.610;9.776;2023-03-21T10:13:21;4.73;;;4.23;;
7919;SDS011;18778;47.610;9.776;2023-03-21T10:15:51;4.47;;;4.07;;
7919;SDS011;18778;47.610;9.776;2023-03-21T10:18:25;5.07;;;4.37;;
7919;SDS011;18778;47.610;9.776;2023-03-21T10:20:53;4.30;;;4.00;;
7919;SDS011;18778;47.610;9.776;2023-03-21T10:23:20;5.37;;;4.87;;
7919;SDS011;18778;47.610;9.776;2023-03-21T10:25:54;5.43;;;5.00;;
7919;SDS011;18778;47.610;9.776;2023-03-21T10:28:27;4.63;;;4.23;;
7919;SDS011;18778;47.610;9.776;2023-03-21T10:31:01;4.80;;;4.33;;
7919;SDS011;18778;47.610;9.776;2023-03-21T10:33:32;4.53;;;4.17;;
7919;SDS011;18778;47.610;9.776;2023-03-21T10:36:04;5.50;;;4.37;;
7919;SDS011;18778;47.610;9.776;2023-03-21T10:38:32;5.47;;;5.00;;
7919;SDS011;18778;47.610;9.776;2023-03-21T10:40:58;6.57;;;5.30;;
7919;SDS011;18778;47.610;9.776;2023-03-21T10:45:50;5.70;;;5.10;;
7919;SDS011;18778;47.610;9.776;2023-03-21T10:48:16;5.40;;;4.80;;
7919;SDS011;18778;47.610;9.776;2023-03-21T10:50:42;4.93;;;4.53;;
7919;SDS011;18778;47.610;9.776;2023-03-21T10:53:21;5.70;;;5.10;;
7919;SDS011;18778;47.610;9.776;2023-03-21T10:55:53;5.60;;;5.10;;
7919;SDS011;18778;47.610;9.776;2023-03-21T10:58:29;5.10;;;4.60;;
7919;SDS011;18778;47.610;9.776;2023-03-21T11:01:02;5.60;;;5.17;;
7919;SDS011;18778;47.610;9.776;2023-03-21T11:03:37;5.20;;;4.77;;
7919;SDS011;18778;47.610;9.776;2023-03-21T11:06:11;5.50;;;5.00;;
7919;SDS011;18778;47.610;9.776;2023-03-21T11:08:43;5.33;;;4.83;;
7919;SDS011;18778;47.610;9.776;2023-03-21T11:11:18;4.67;;;4.27;;
7919;SDS011;18778;47.610;9.776;2023-03-21T11:14:37;4.77;;;4.40;;
7919;SDS011;18778;47.610;9.776;2023-03-21T11:17:50;5.40;;;4.90;;
7919;SDS011;18778;47.610;9.776;2023-03-21T11:19:59;8.97;;;6.50;;
7919;SDS011;18778;47.610;9.776;2023-03-21T11:22:30;7.27;;;5.03;;
7919;SDS011;18778;47.610;9.776;2023-03-21T11:25:08;6.27;;;5.43;;
7919;SDS011;18778;47.610;9.776;2023-03-21T11:27:46;5.47;;;4.97;;
7919;SDS011;18778;47.610;9.776;2023-03-21T11:30:18;5.00;;;4.57;;
7919;SDS011;18778;47.610;9.776;2023-03-21T11:32:56;2.77;;;2.57;;
7919;SDS011;18778;47.610;9.776;2023-03-21T11:35:36;4.13;;;3.83;;
7919;SDS011;18778;47.610;9.776;2023-03-21T11:38:03;5.17;;;4.37;;
7919;SDS011;18778;47.610;9.776;2023-03-21T11:43:36;5.60;;;5.10;;
7919;SDS011;18778;47.610;9.776;2023-03-21T11:48:28;3.80;;;3.50;;
7919;SDS011;18778;47.610;9.776;2023-03-21T11:50:59;4.30;;;4.00;;
7919;SDS011;18778;47.610;9.776;2023-03-21T11:53:38;4.27;;;3.87;;
7919;SDS011;18778;47.610;9.776;2023-03-21T11:56:21;3.37;;;3.17;;
7919;SDS011;18778;47.610;9.776;2023-03-21T12:05:26;3.33;;;3.13;;
7919;SDS011;18778;47.610;9.776;2023-03-21T12:10:41;3.50;;;3.20;;
7919;SDS011;18778;47.610;9.776;2023-03-21T12:13:17;3.50;;;3.10;;
7919;SDS011;18778;47.610;9.776;2023-03-21T12:18:36;4.10;;;3.80;;
7919;SDS011;18778;47.610;9.776;2023-03-21T12:21:19;4.57;;;4.23;;
7919;SDS011;18778;47.610;9.776;2023-03-21T12:24:16;4.13;;;3.83;;
7919;SDS011;18778;47.610;9.776;2023-03-21T12:45:41;8.27;;;7.40;;
7919;SDS011;18778;47.610;9.776;2023-03-21T12:50:43;6.30;;;5.60;;
7919;SDS011;18778;47.610;9.776;2023-03-21T12:53:23;6.37;;;5.47;;
7919;SDS011;18778;47.610;9.776;2023-03-21T12:56:09;7.67;;;5.27;;
7919;SDS011;18778;47.610;9.776;2023-03-21T12:58:43;6.20;;;5.67;;
7919;SDS011;18778;47.610;9.776;2023-03-21T13:01:13;6.53;;;4.97;;
7919;SDS011;18778;47.610;9.776;2023-03-21T13:03:41;5.30;;;4.90;;
7919;SDS011;18778;47.610;9.776;2023-03-21T13:06:12;5.50;;;4.77;;
7919;SDS011;18778;47.610;9.776;2023-03-21T13:08:52;6.43;;;5.83;;
7919;SDS011;18778;47.610;9.776;2023-03-21T13:11:31;5.50;;;5.00;;
7919;SDS011;18778;47.610;9.776;2023-03-21T13:16:33;6.17;;;5.00;;
7919;SDS011;18778;47.610;9.776;2023-03-21T13:19:27;6.33;;;5.27;;
7919;SDS011;18778;47.610;9.776;2023-03-21T13:27:21;6.53;;;5.37;;
7919;SDS011;18778;47.610;9.776;2023-03-21T13:29:53;5.70;;;5.20;;
7919;SDS011;18778;47.610;9.776;2023-03-21T13:32:34;6.07;;;4.73;;
7919;SDS011;18778;47.610;9.776;2023-03-21T13:37:41;5.50;;;4.90;;
7919;SDS011;18778;47.610;9.776;2023-03-21T13:40:20;5.47;;;4.97;;
7919;SDS011;18778;47.610;9.776;2023-03-21T13:42:52;5.60;;;5.10;;
7919;SDS011;18778;47.610;9.776;2023-03-21T13:45:26;5.00;;;4.60;;
7919;SDS011;18778;47.610;9.776;2023-03-21T13:48:11;5.33;;;4.83;;
7919;SDS011;18778;47.610;9.776;2023-03-21T13:50:59;5.80;;;5.27;;
7919;SDS011;18778;47.610;9.776;2023-03-21T13:53:37;5.43;;;4.80;;
7919;SDS011;18778;47.610;9.776;2023-03-21T13:56:25;5.63;;;5.03;;
7919;SDS011;18778;47.610;9.776;2023-03-21T13:58:51;5.60;;;4.70;;
7919;SDS011;18778;47.610;9.776;2023-03-21T14:01:30;6.57;;;5.10;;
7919;SDS011;18778;47.610;9.776;2023-03-21T14:04:04;5.30;;;4.80;;
7919;SDS011;18778;47.610;9.776;2023-03-21T14:06:42;5.13;;;4.73;;
7919;SDS011;18778;47.610;9.776;2023-03-21T14:12:41;7.67;;;5.03;;
7919;SDS011;18778;47.610;9.776;2023-03-21T14:15:19;5.23;;;4.83;;
7919;SDS011;18778;47.610;9.776;2023-03-21T14:20:24;5.27;;;4.77;;
7919;SDS011;18778;47.610;9.776;2023-03-21T14:22:51;4.87;;;4.47;;
7919;SDS011;18778;47.610;9.776;2023-03-21T14:25:19;5.20;;;4.70;;
7919;SDS011;18778;47.610;9.776;2023-03-21T14:27:48;7.57;;;4.63;;
7919;SDS011;18778;47.610;9.776;2023-03-21T14:30:27;4.83;;;4.43;;
7919;SDS011;18778;47.610;9.776;2023-03-21T14:32:59;4.67;;;4.27;;
7919;SDS011;18778;47.610;9.776;2023-03-21T14:35:40;5.10;;;4.23;;
7919;SDS011;18778;47.610;9.776;2023-03-21T14:38:07;4.83;;;4.43;;
7919;SDS011;18778;47.610;9.776;2023-03-21T14:40:47;4.30;;;3.90;;
7919;SDS011;18778;47.610;9.776;2023-03-21T14:43:16;5.10;;;4.60;;
7919;SDS011;18778;47.610;9.776;2023-03-21T14:45:46;5.73;;;4.77;;
7919;SDS011;18778;47.610;9.776;2023-03-21T14:48:14;4.83;;;4.30;;
7919;SDS011;18778;47.610;9.776;2023-03-21T14:55:55;5.27;;;4.70;;
7919;SDS011;18778;47.610;9.776;2023-03-21T14:58:33;5.10;;;4.60;;
7919;SDS011;18778;47.610;9.776;2023-03-21T15:01:03;4.67;;;4.30;;
7919;SDS011;18778;47.610;9.776;2023-03-21T15:03:30;4.80;;;4.40;;
7919;SDS011;18778;47.610;9.776;2023-03-21T15:05:56;5.97;;;4.30;;
7919;SDS011;18778;47.610;9.776;2023-03-21T15:08:24;5.13;;;4.60;;
7919;SDS011;18778;47.610;9.776;2023-03-21T15:10:55;4.97;;;4.57;;
7919;SDS011;18778;47.610;9.776;2023-03-21T15:13:32;4.60;;;4.30;;
7919;SDS011;18778;47.610;9.776;2023-03-21T15:16:00;5.23;;;4.80;;
7919;SDS011;18778;47.610;9.776;2023-03-21T15:18:27;5.33;;;4.83;;
7919;SDS011;18778;47.610;9.776;2023-03-21T15:21:02;5.37;;;4.87;;
7919;SDS011;18778;47.610;9.776;2023-03-21T15:23:41;5.60;;;5.10;;
7919;SDS011;18778;47.610;9.776;2023-03-21T15:26:19;5.90;;;4.53;;
7919;SDS011;18778;47.610;9.776;2023-03-21T15:28:49;5.90;;;4.30;;
7919;SDS011;18778;47.610;9.776;2023-03-21T15:31:20;5.10;;;4.70;;
7919;SDS011;18778;47.610;9.776;2023-03-21T15:33:47;7.17;;;6.50;;
7919;SDS011;18778;47.610;9.776;2023-03-21T15:36:18;6.53;;;5.37;;
7919;SDS011;18778;47.610;9.776;2023-03-21T15:38:46;5.93;;;5.43;;
7919;SDS011;18778;47.610;9.776;2023-03-21T15:46:45;7.00;;;6.30;;
7919;SDS011;18778;47.610;9.776;2023-03-21T15:54:34;7.27;;;6.40;;
7919;SDS011;18778;47.610;9.776;2023-03-21T15:57:16;9.60;;;8.67;;
7919;SDS011;18778;47.610;9.776;2023-03-21T15:59:47;7.43;;;6.63;;
7919;SDS011;18778;47.610;9.776;2023-03-21T16:02:18;6.93;;;5.87;;
7919;SDS011;18778;47.610;9.776;2023-03-21T16:05:00;6.20;;;5.60;;
7919;SDS011;18778;47.610;9.776;2023-03-21T16:07:43;6.87;;;6.17;;
7919;SDS011;18778;47.610;9.776;2023-03-21T16:10:27;6.60;;;5.97;;
7919;SDS011;18778;47.610;9.776;2023-03-21T16:12:53;7.37;;;6.47;;
7919;SDS011;18778;47.610;9.776;2023-03-21T16:15:19;8.70;;;6.13;;
7919;SDS011;18778;47.610;9.776;2023-03-21T16:17:58;9.77;;;6.67;;
7919;SDS011;18778;47.610;9.776;2023-03-21T16:20:27;6.43;;;5.67;;
7919;SDS011;18778;47.610;9.776;2023-03-21T16:22:56;6.70;;;6.10;;
7919;SDS011;18778;47.610;9.776;2023-03-21T16:25:22;7.03;;;6.13;;
7919;SDS011;18778;47.610;9.776;2023-03-21T16:27:48;8.23;;;6.33;;
7919;SDS011;18778;47.610;9.776;2023-03-21T16:30:15;6.40;;;5.80;;
7919;SDS011;18778;47.610;9.776;2023-03-21T16:32:43;7.00;;;6.30;;
7919;SDS011;18778;47.610;9.776;2023-03-21T16:35:08;7.47;;;5.70;;
7919;SDS011;18778;47.610;9.776;2023-03-21T16:37:35;8.23;;;6.10;;
7919;SDS011;18778;47.610;9.776;2023-03-21T16:40:01;7.17;;;6.10;;
7919;SDS011;18778;47.610;9.776;2023-03-21T16:42:29;7.17;;;6.47;;
7919;SDS011;18778;47.610;9.776;2023-03-21T16:44:55;8.37;;;6.53;;
7919;SDS011;18778;47.610;9.776;2023-03-21T16:47:21;7.73;;;6.13;;
7919;SDS011;18778;47.610;9.776;2023-03-21T16:49:48;6.27;;;5.67;;
7919;SDS011;18778;47.610;9.776;2023-03-21T16:52:14;6.33;;;5.70;;
7919;SDS011;18778;47.610;9.776;2023-03-21T16:54:40;7.07;;;6.30;;
7919;SDS011;18778;47.610;9.776;2023-03-21T16:57:06;6.57;;;5.83;;
7919;SDS011;18778;47.610;9.776;2023-03-21T16:59:39;8.37;;;6.53;;
7919;SDS011;18778;47.610;9.776;2023-03-21T17:02:10;7.87;;;6.57;;
7919;SDS011;18778;47.610;9.776;2023-03-21T17:04:37;8.13;;;6.60;;
7919;SDS011;18778;47.610;9.776;2023-03-21T17:07:04;8.73;;;7.87;;
7919;SDS011;18778;47.610;9.776;2023-03-21T17:09:33;9.23;;;7.17;;
7919;SDS011;18778;47.610;9.776;2023-03-21T17:12:00;8.10;;;7.30;;
7919;SDS011;18778;47.610;9.776;2023-03-21T17:14:26;7.87;;;6.50;;
7919;SDS011;18778;47.610;9.776;2023-03-21T17:16:51;7.30;;;6.60;;
7919;SDS011;18778;47.610;9.776;2023-03-21T17:19:20;9.23;;;7.40;;
7919;SDS011;18778;47.610;9.776;2023-03-21T17:21:51;8.57;;;7.60;;
7919;SDS011;18778;47.610;9.776;2023-03-21T17:24:19;7.90;;;7.10;;